Aeroporto :
LOGIN :

Iscrizione | Disclaimer

   EN    FR    IT 

 










Sommario :    VFR   VFR Marginale   IFR   IFR Intensivo   IFR Molto Intensivo
Visibilità : 
Base nubi : 
>= 8 km
>= 3000ft
5 / 8 km
1000 / 3000 ft
1500m / 5 km
500 / 1000 ft
800 / 1500m
200 / 500 ft
< 800m
< 200 ft
Simboli :   Temporali  Nebbia  Neve Forte  Precipitazioni Forti  Vento > 20 kt
SIGMETs :   Varie  Temporali  Ghiacco  Turbolenza  Onda orograficha  Ceneri Vulcaniche






- Altitudine del aeroporto : 230 ft


ETHB - Buckeburg Army

ULTIMO METAR :
  • 142120Z 07008KT 9999 FEW120 BKN210 04/02 Q1005 BLU+BLU+

METARs OBSOLETI :
  • 142020Z 09007KT 9999 FEW120 BKN220 05/02 Q1006 BLU+BLU+
  • 141920Z 11007KT 9999 FEW120 BKN280 04/02 Q1006 BLU+BLU+

TAF AMD TAF ETHB
Valido dal 14 a 15 ore il 15 a 00 ore UTC


142128Z 1415/1424 09008KT 9999 NSW FEW150 BKN200
BECMG 1422/1424 08008KT 9000 NSW SCT012 CANCEL 2200



MetMap, La meteo Aeronautica in un colpo d'occhio ! - Copyright ORBIFLY Dicembre 2007 - Disclaimer

ORBIFLY MET'MAP TEAM :

Programmazione e sviluppo : Alexandra Zaïnal
Concezione e sviluppo : Baudouin d'Aumeries
Co-Programmazione e sviluppo : Marc-Olivier Méhu
Supporto tecnico e logistico : Manuel Goepfert
Aiuto per la traduzione : Arnaldo La Scala

Contatto : metmap@orbifly.com




FONTI E CREDITI :

   NOAA